Time;durP1;ratioP1;P1;durP2;ratioP2;P2;SDS_P1;SDS_P2;PMS_P1;PMS_P2;Temp;Humidity;BMP_temperature;BMP_pressure;BME280_temperature;BME280_humidity;BME280_pressure;Samples;Min_cycle;Max_cycle;Signal;HPM_P1;HPM_P2
2022/12/13 00:01:33;;;;;;;16.10;10.87;;;;;;;;;;4960736;28;20220;-87
2022/12/13 00:04:00;;;;;;;17.30;11.43;;;;;;;;;;4980488;28;20233;-86
2022/12/13 00:06:26;;;;;;;14.87;10.20;;;;;;;;;;4970591;28;20225;-87
2022/12/13 00:08:52;;;;;;;17.57;11.27;;;;;;;;;;4971480;28;20248;-86
2022/12/13 00:11:20;;;;;;;15.03;10.90;;;;;;;;;;4970278;28;20236;-87
2022/12/13 00:13:48;;;;;;;14.63;10.67;;;;;;;;;;4968520;28;20226;-86
2022/12/13 00:16:23;;;;;;;16.03;11.20;;;;;;;;;;4952257;28;20270;-87
2022/12/13 00:18:50;;;;;;;20.77;11.70;;;;;;;;;;4962412;28;20244;-87
2022/12/13 00:21:17;;;;;;;17.53;10.70;;;;;;;;;;4936828;28;20253;-86
2022/12/13 00:23:46;;;;;;;16.20;10.80;;;;;;;;;;4967983;28;20217;-86
2022/12/13 00:26:20;;;;;;;15.37;10.23;;;;;;;;;;4974155;28;20641;-86
2022/12/13 00:28:53;;;;;;;14.47;9.63;;;;;;;;;;4963317;28;20578;-87
2022/12/13 00:31:20;;;;;;;16.43;11.07;;;;;;;;;;4962947;28;20289;-87
2022/12/13 00:33:45;;;;;;;16.33;10.70;;;;;;;;;;4959774;28;20621;-86
2022/12/13 00:36:11;;;;;;;15.93;11.37;;;;;;;;;;4962217;28;20226;-86
2022/12/13 00:38:36;;;;;;;18.03;11.87;;;;;;;;;;4947922;28;20759;-87
2022/12/13 00:41:32;;;;;;;14.33;9.97;;;;;;;;;;4967861;28;20623;-87
2022/12/13 00:43:58;;;;;;;15.97;9.87;;;;;;;;;;4985909;28;20794;-87
2022/12/13 00:46:23;;;;;;;19.93;10.23;;;;;;;;;;4964739;28;20225;-87
2022/12/13 00:48:51;;;;;;;16.33;11.77;;;;;;;;;;4950055;28;20251;-86
2022/12/13 00:51:16;;;;;;;20.43;11.13;;;;;;;;;;4965565;28;20286;-87
2022/12/13 00:53:44;;;;;;;17.67;11.17;;;;;;;;;;4985975;28;20673;-87
2022/12/13 00:56:14;;;;;;;18.30;11.67;;;;;;;;;;4966532;28;20236;-86
2022/12/13 00:58:40;;;;;;;14.67;9.87;;;;;;;;;;4994049;28;20284;-86
2022/12/13 01:01:09;;;;;;;17.67;10.87;;;;;;;;;;4978387;28;20230;-86
2022/12/13 01:03:35;;;;;;;16.67;11.67;;;;;;;;;;4945730;28;20230;-86
2022/12/13 01:06:06;;;;;;;13.83;10.87;;;;;;;;;;4942209;28;20789;-86
2022/12/13 01:08:32;;;;;;;14.67;10.37;;;;;;;;;;4945280;28;20241;-86
2022/12/13 01:10:57;;;;;;;15.33;10.70;;;;;;;;;;4977366;28;20229;-86
2022/12/13 01:13:23;;;;;;;14.67;9.40;;;;;;;;;;4957138;28;20222;-86
2022/12/13 01:15:48;;;;;;;14.40;9.33;;;;;;;;;;4946467;28;20218;-86
2022/12/13 01:18:17;;;;;;;14.23;10.33;;;;;;;;;;4962522;28;20229;-86
2022/12/13 01:20:45;;;;;;;19.97;11.97;;;;;;;;;;4963752;28;20221;-86
2022/12/13 01:23:14;;;;;;;14.50;9.57;;;;;;;;;;4978561;28;20217;-86
2022/12/13 01:25:42;;;;;;;16.67;9.77;;;;;;;;;;4966074;28;20229;-86
2022/12/13 01:28:07;;;;;;;15.40;9.73;;;;;;;;;;4975330;28;20248;-86
2022/12/13 01:30:35;;;;;;;14.73;9.83;;;;;;;;;;4968660;28;20217;-87
2022/12/13 01:33:05;;;;;;;13.77;10.07;;;;;;;;;;4969388;28;20730;-86
2022/12/13 01:35:33;;;;;;;16.10;11.27;;;;;;;;;;4959650;28;20221;-86
2022/12/13 01:38:01;;;;;;;15.90;10.27;;;;;;;;;;4955709;28;20232;-86
2022/12/13 01:40:29;;;;;;;16.20;10.37;;;;;;;;;;4928309;28;20229;-86
2022/12/13 01:42:55;;;;;;;15.23;10.00;;;;;;;;;;4930572;28;20680;-86
2022/12/13 01:45:25;;;;;;;12.90;9.53;;;;;;;;;;4953572;28;20229;-87
2022/12/13 01:47:59;;;;;;;17.30;10.43;;;;;;;;;;4957575;28;20226;-86
2022/12/13 01:50:35;;;;;;;13.40;9.73;;;;;;;;;;4943591;28;20209;-86
2022/12/13 01:53:01;;;;;;;16.83;10.10;;;;;;;;;;4955403;28;20695;-87
2022/12/13 01:55:29;;;;;;;14.63;10.00;;;;;;;;;;4949930;28;20229;-87
2022/12/13 01:57:55;;;;;;;15.30;10.13;;;;;;;;;;4981018;28;20217;-87
2022/12/13 02:00:20;;;;;;;17.00;9.23;;;;;;;;;;4946869;28;20733;-87
2022/12/13 02:02:46;;;;;;;13.00;9.10;;;;;;;;;;4963401;28;20257;-86
2022/12/13 02:05:25;;;;;;;15.87;9.37;;;;;;;;;;4980905;28;20222;-88
2022/12/13 02:07:53;;;;;;;14.50;9.13;;;;;;;;;;4994710;28;20240;-88
2022/12/13 02:10:19;;;;;;;14.80;9.97;;;;;;;;;;4983498;28;20230;-87
2022/12/13 02:12:44;;;;;;;13.47;9.73;;;;;;;;;;4985911;28;20233;-88
2022/12/13 02:15:14;;;;;;;13.70;9.13;;;;;;;;;;4974393;28;20214;-87
2022/12/13 02:18:01;;;;;;;16.70;9.27;;;;;;;;;;4984026;28;20229;-88
2022/12/13 02:20:37;;;;;;;11.70;8.63;;;;;;;;;;5013418;22;20224;-78
2022/12/13 02:23:14;;;;;;;15.50;9.10;;;;;;;;;;4997120;28;20449;-80
2022/12/13 02:26:06;;;;;;;15.00;9.57;;;;;;;;;;4991683;28;20225;-78
2022/12/13 02:28:56;;;;;;;15.93;8.07;;;;;;;;;;5002529;28;20308;-78
2022/12/13 02:31:53;;;;;;;15.20;8.17;;;;;;;;;;5003086;28;20217;-78
2022/12/13 02:34:21;;;;;;;13.53;7.80;;;;;;;;;;4960869;28;20935;-78
2022/12/13 02:37:17;;;;;;;14.13;8.27;;;;;;;;;;5005650;28;20440;-78
2022/12/13 02:40:04;;;;;;;11.73;8.47;;;;;;;;;;4949829;28;20225;-77
2022/12/13 02:42:38;;;;;;;14.77;8.83;;;;;;;;;;5026126;28;20275;-78
2022/12/13 02:45:16;;;;;;;16.83;9.27;;;;;;;;;;4991367;28;20217;-78
2022/12/13 02:47:43;;;;;;;17.50;9.43;;;;;;;;;;5011349;28;20229;-77
2022/12/13 02:50:08;;;;;;;11.63;8.23;;;;;;;;;;5007036;28;20244;-78
2022/12/13 02:52:36;;;;;;;13.60;8.80;;;;;;;;;;5014409;28;20224;-77
2022/12/13 02:55:08;;;;;;;17.03;8.87;;;;;;;;;;4993030;28;20217;-78
2022/12/13 02:57:38;;;;;;;11.50;7.93;;;;;;;;;;5007662;28;20317;-77
2022/12/13 03:00:09;;;;;;;14.57;9.50;;;;;;;;;;4988285;28;20313;-78
2022/12/13 03:03:05;;;;;;;13.30;8.53;;;;;;;;;;5019332;28;20225;-79
2022/12/13 03:08:29;;;;;;;13.97;7.77;;;;;;;;;;5031218;28;21848;-78
2022/12/13 03:11:06;;;;;;;15.67;9.57;;;;;;;;;;5017811;28;20215;-78
2022/12/13 03:13:55;;;;;;;12.30;8.80;;;;;;;;;;5036816;28;20221;-78
2022/12/13 03:16:26;;;;;;;13.63;8.43;;;;;;;;;;5010614;28;20240;-78
2022/12/13 03:18:59;;;;;;;12.33;8.33;;;;;;;;;;5016251;28;20234;-78
2022/12/13 03:21:28;;;;;;;12.13;8.60;;;;;;;;;;4978727;28;20231;-78
2022/12/13 03:23:56;;;;;;;11.60;8.80;;;;;;;;;;4993475;28;20232;-78
2022/12/13 03:26:24;;;;;;;12.57;8.80;;;;;;;;;;5006486;28;20280;-77
2022/12/13 03:28:54;;;;;;;12.87;8.40;;;;;;;;;;4999233;28;20235;-78
2022/12/13 03:31:22;;;;;;;14.17;9.43;;;;;;;;;;4992055;28;20229;-79
2022/12/13 03:33:55;;;;;;;13.43;9.07;;;;;;;;;;5008363;28;20244;-78
2022/12/13 03:36:23;;;;;;;13.97;9.27;;;;;;;;;;5025632;28;20229;-78
2022/12/13 03:38:51;;;;;;;13.00;9.10;;;;;;;;;;4988940;28;20236;-78
2022/12/13 03:41:18;;;;;;;13.20;8.77;;;;;;;;;;4997805;28;20243;-78
2022/12/13 03:43:45;;;;;;;16.30;9.47;;;;;;;;;;4991180;28;20276;-78
2022/12/13 03:46:13;;;;;;;14.27;9.03;;;;;;;;;;5000933;28;20235;-77
2022/12/13 03:48:39;;;;;;;17.33;9.90;;;;;;;;;;4997349;28;20275;-78
2022/12/13 03:51:05;;;;;;;14.67;9.77;;;;;;;;;;5007569;28;20243;-78
2022/12/13 03:53:35;;;;;;;17.07;9.97;;;;;;;;;;5002704;28;20297;-78
2022/12/13 03:56:04;;;;;;;15.00;8.93;;;;;;;;;;5010640;28;20224;-78
2022/12/13 03:58:32;;;;;;;13.20;8.30;;;;;;;;;;5009537;28;20613;-77
2022/12/13 04:00:58;;;;;;;17.70;10.03;;;;;;;;;;5007220;28;20272;-77
2022/12/13 04:03:28;;;;;;;14.23;8.77;;;;;;;;;;5000266;28;20220;-78
2022/12/13 04:05:56;;;;;;;11.30;8.70;;;;;;;;;;5023470;28;20213;-78
2022/12/13 04:08:21;;;;;;;14.37;9.10;;;;;;;;;;5027437;28;20285;-78
2022/12/13 04:10:49;;;;;;;12.97;8.33;;;;;;;;;;5003465;28;20224;-77
2022/12/13 04:13:33;;;;;;;11.80;8.67;;;;;;;;;;5005399;28;20233;-78
2022/12/13 04:16:01;;;;;;;11.90;7.77;;;;;;;;;;5019288;28;20223;-77
2022/12/13 04:18:29;;;;;;;14.40;8.13;;;;;;;;;;5011563;28;20227;-78
2022/12/13 04:20:57;;;;;;;14.27;9.47;;;;;;;;;;5011121;28;20228;-78
2022/12/13 04:23:25;;;;;;;15.20;8.17;;;;;;;;;;5012864;28;20217;-78
2022/12/13 04:25:53;;;;;;;17.13;9.03;;;;;;;;;;5026573;28;20258;-78
2022/12/13 04:28:21;;;;;;;13.00;8.83;;;;;;;;;;5036572;28;20235;-78
2022/12/13 04:30:46;;;;;;;13.07;8.80;;;;;;;;;;5024957;28;20228;-77
2022/12/13 04:33:14;;;;;;;17.53;10.20;;;;;;;;;;4993680;28;20231;-78
2022/12/13 04:35:41;;;;;;;14.43;9.43;;;;;;;;;;4999767;28;20277;-78
2022/12/13 04:38:09;;;;;;;12.60;8.83;;;;;;;;;;5012562;28;20214;-79
2022/12/13 04:40:37;;;;;;;14.30;9.07;;;;;;;;;;4996043;28;20580;-78
2022/12/13 04:43:05;;;;;;;14.33;9.00;;;;;;;;;;4981822;28;20220;-78
2022/12/13 04:45:33;;;;;;;15.30;9.37;;;;;;;;;;5018392;28;20217;-79
2022/12/13 04:48:01;;;;;;;14.30;8.80;;;;;;;;;;5022923;28;20213;-78
2022/12/13 04:50:30;;;;;;;15.13;9.43;;;;;;;;;;5010123;28;20233;-78
2022/12/13 04:52:58;;;;;;;19.30;10.33;;;;;;;;;;4979328;28;20221;-78
2022/12/13 04:55:28;;;;;;;15.57;10.17;;;;;;;;;;5008013;28;20224;-78
2022/12/13 04:57:56;;;;;;;14.47;10.37;;;;;;;;;;5028966;28;20220;-78
2022/12/13 05:00:22;;;;;;;17.97;10.23;;;;;;;;;;5008664;28;20360;-79
2022/12/13 05:02:47;;;;;;;15.63;9.93;;;;;;;;;;5007110;28;20229;-77
2022/12/13 05:05:17;;;;;;;17.93;10.07;;;;;;;;;;5011755;28;20228;-78
2022/12/13 05:07:45;;;;;;;15.60;9.77;;;;;;;;;;4995142;28;20217;-79
2022/12/13 05:10:15;;;;;;;13.70;9.60;;;;;;;;;;4980446;28;20543;-77
2022/12/13 05:12:41;;;;;;;17.67;10.67;;;;;;;;;;5028012;28;20227;-78
2022/12/13 05:17:54;;;;;;;17.63;10.80;;;;;;;;;;5037781;28;20610;-87
2022/12/13 05:20:21;;;;;;;18.07;10.33;;;;;;;;;;4967635;28;20225;-87
2022/12/13 05:22:49;;;;;;;19.37;11.40;;;;;;;;;;4980439;28;20251;-87
2022/12/13 05:25:17;;;;;;;17.13;10.03;;;;;;;;;;4978298;28;20238;-87
2022/12/13 05:28:04;;;;;;;17.60;11.40;;;;;;;;;;4962189;28;20229;-88
2022/12/13 05:30:30;;;;;;;21.40;10.83;;;;;;;;;;5004404;28;20232;-87
2022/12/13 05:32:55;;;;;;;16.80;10.73;;;;;;;;;;4965051;28;20205;-87
2022/12/13 05:35:21;;;;;;;15.93;10.77;;;;;;;;;;4994118;28;20271;-86
2022/12/13 05:37:52;;;;;;;15.97;10.80;;;;;;;;;;4969031;28;20791;-81
2022/12/13 05:40:17;;;;;;;15.90;11.33;;;;;;;;;;4975132;28;20225;-79
2022/12/13 05:42:50;;;;;;;20.07;14.43;;;;;;;;;;4991234;28;20220;-80
2022/12/13 05:45:16;;;;;;;16.40;10.73;;;;;;;;;;4990372;28;20224;-81
2022/12/13 05:47:44;;;;;;;17.57;10.77;;;;;;;;;;4997771;28;20224;-82
2022/12/13 05:50:10;;;;;;;19.80;11.80;;;;;;;;;;4969710;28;20225;-80
2022/12/13 05:52:36;;;;;;;15.30;10.77;;;;;;;;;;4993684;28;20642;-81
2022/12/13 05:55:03;;;;;;;17.07;11.53;;;;;;;;;;4986018;28;20225;-79
2022/12/13 05:57:30;;;;;;;18.00;10.80;;;;;;;;;;5022998;28;20235;-81
2022/12/13 05:59:58;;;;;;;16.27;11.63;;;;;;;;;;4969798;28;20225;-82
2022/12/13 06:02:23;;;;;;;19.67;11.43;;;;;;;;;;4994214;28;20690;-78
2022/12/13 06:04:49;;;;;;;25.73;12.20;;;;;;;;;;4998459;28;20228;-80
2022/12/13 06:07:29;;;;;;;16.73;11.70;;;;;;;;;;5004044;28;20233;-79
2022/12/13 06:09:54;;;;;;;17.63;11.83;;;;;;;;;;4973215;28;20316;-80
2022/12/13 06:12:20;;;;;;;19.57;13.47;;;;;;;;;;5006397;28;20694;-80
2022/12/13 06:14:45;;;;;;;21.57;12.77;;;;;;;;;;4988311;28;20228;-80
2022/12/13 06:17:11;;;;;;;24.73;12.93;;;;;;;;;;5003031;28;20227;-80
2022/12/13 06:19:38;;;;;;;20.27;12.50;;;;;;;;;;5020343;28;20255;-79
2022/12/13 06:22:04;;;;;;;21.60;13.10;;;;;;;;;;4991125;28;20593;-81
2022/12/13 06:24:30;;;;;;;19.23;13.37;;;;;;;;;;4982713;28;20589;-80
2022/12/13 06:26:55;;;;;;;19.93;13.07;;;;;;;;;;4998139;28;20714;-80
2022/12/13 06:29:23;;;;;;;38.27;22.20;;;;;;;;;;5002035;28;20233;-80
2022/12/13 06:31:53;;;;;;;34.73;21.03;;;;;;;;;;4990554;28;20246;-79
2022/12/13 06:34:21;;;;;;;41.37;21.73;;;;;;;;;;4969529;28;20226;-80
2022/12/13 06:36:47;;;;;;;19.90;13.23;;;;;;;;;;5005166;28;20497;-81
2022/12/13 06:39:15;;;;;;;15.40;10.93;;;;;;;;;;5003777;28;20229;-80
2022/12/13 06:41:40;;;;;;;17.73;12.87;;;;;;;;;;4987595;28;20609;-81
2022/12/13 06:44:06;;;;;;;19.53;12.13;;;;;;;;;;4976202;28;20226;-81
2022/12/13 06:46:31;;;;;;;17.03;12.20;;;;;;;;;;5014693;28;20224;-81
2022/12/13 06:48:57;;;;;;;16.73;11.17;;;;;;;;;;4998527;28;20725;-81
2022/12/13 06:51:23;;;;;;;21.50;13.13;;;;;;;;;;5007557;28;20239;-80
2022/12/13 06:53:48;;;;;;;17.37;12.33;;;;;;;;;;4997353;28;20240;-81
2022/12/13 06:56:14;;;;;;;17.73;12.03;;;;;;;;;;5002249;28;20217;-81
2022/12/13 06:58:40;;;;;;;18.57;12.20;;;;;;;;;;5007061;28;20213;-81
2022/12/13 07:01:06;;;;;;;16.73;12.40;;;;;;;;;;4977308;28;20221;-81
2022/12/13 07:03:32;;;;;;;16.87;12.17;;;;;;;;;;5013559;28;20351;-81
2022/12/13 07:05:59;;;;;;;19.50;12.30;;;;;;;;;;5009085;28;20220;-81
2022/12/13 07:08:30;;;;;;;17.67;12.13;;;;;;;;;;4998205;28;20225;-81
2022/12/13 07:11:00;;;;;;;16.67;12.17;;;;;;;;;;4996704;28;20217;-82
2022/12/13 07:13:29;;;;;;;17.57;12.27;;;;;;;;;;5016008;28;20873;-81
2022/12/13 07:15:57;;;;;;;18.83;14.50;;;;;;;;;;5006909;28;20231;-80
2022/12/13 07:18:23;;;;;;;15.53;11.67;;;;;;;;;;5014717;28;20225;-80
2022/12/13 07:20:48;;;;;;;16.43;11.33;;;;;;;;;;5017883;28;20222;-80
2022/12/13 07:23:14;;;;;;;17.17;11.60;;;;;;;;;;4979011;28;20247;-80
2022/12/13 07:25:49;;;;;;;16.03;10.70;;;;;;;;;;4993189;28;20221;-81
2022/12/13 07:28:15;;;;;;;18.20;11.10;;;;;;;;;;4982598;28;20604;-80
2022/12/13 07:30:45;;;;;;;15.77;10.90;;;;;;;;;;4960788;28;20210;-81
2022/12/13 07:33:11;;;;;;;18.73;12.03;;;;;;;;;;5024189;28;20224;-80
2022/12/13 07:35:39;;;;;;;14.87;11.30;;;;;;;;;;4981360;28;20299;-81
2022/12/13 07:38:05;;;;;;;17.10;11.87;;;;;;;;;;5009620;28;20229;-79
2022/12/13 07:40:35;;;;;;;18.87;11.80;;;;;;;;;;5004599;28;20292;-82
2022/12/13 07:43:04;;;;;;;16.83;11.57;;;;;;;;;;4980488;28;20788;-79
2022/12/13 07:45:34;;;;;;;16.33;11.23;;;;;;;;;;4958413;28;20229;-82
2022/12/13 07:48:04;;;;;;;17.30;11.77;;;;;;;;;;4995478;28;22041;-79
2022/12/13 07:50:31;;;;;;;17.20;11.07;;;;;;;;;;4991153;28;20233;-80
2022/12/13 07:53:03;;;;;;;17.43;10.87;;;;;;;;;;4989049;28;20218;-80
2022/12/13 07:55:30;;;;;;;18.20;11.87;;;;;;;;;;5002700;28;20267;-80
2022/12/13 07:58:08;;;;;;;22.13;11.83;;;;;;;;;;4995073;28;20241;-81
2022/12/13 08:00:34;;;;;;;16.70;10.43;;;;;;;;;;4979389;28;20434;-81
2022/12/13 08:03:00;;;;;;;16.17;11.07;;;;;;;;;;5009057;28;20227;-80
2022/12/13 08:05:30;;;;;;;18.53;11.60;;;;;;;;;;4983411;28;20276;-80
2022/12/13 08:07:58;;;;;;;19.80;12.03;;;;;;;;;;5007503;28;20219;-81
2022/12/13 08:10:24;;;;;;;17.20;11.83;;;;;;;;;;5013758;28;20282;-81
2022/12/13 08:12:52;;;;;;;15.93;11.33;;;;;;;;;;5005047;28;20228;-80
2022/12/13 08:15:18;;;;;;;20.83;12.13;;;;;;;;;;4998298;28;20710;-81
2022/12/13 08:17:43;;;;;;;17.90;11.97;;;;;;;;;;4992242;28;20259;-81
2022/12/13 08:20:11;;;;;;;18.37;11.77;;;;;;;;;;5008781;28;20222;-81
2022/12/13 08:22:39;;;;;;;17.27;12.87;;;;;;;;;;4988503;28;20216;-81
2022/12/13 08:25:06;;;;;;;19.00;13.23;;;;;;;;;;5012254;28;20232;-80
2022/12/13 08:27:32;;;;;;;19.97;13.43;;;;;;;;;;4994069;28;20232;-81
2022/12/13 08:29:57;;;;;;;15.47;11.77;;;;;;;;;;4975981;28;20229;-81
2022/12/13 08:32:23;;;;;;;17.97;13.10;;;;;;;;;;5011250;28;20225;-81
2022/12/13 08:34:48;;;;;;;17.23;12.83;;;;;;;;;;4997606;28;20228;-80
2022/12/13 08:37:14;;;;;;;19.70;12.77;;;;;;;;;;4975462;28;20232;-81
2022/12/13 08:39:43;;;;;;;17.53;13.30;;;;;;;;;;5006028;28;20271;-81
2022/12/13 08:42:15;;;;;;;19.23;13.83;;;;;;;;;;5009121;28;20259;-80
2022/12/13 08:44:41;;;;;;;20.03;13.93;;;;;;;;;;5019496;28;20227;-80
2022/12/13 08:47:07;;;;;;;22.73;13.20;;;;;;;;;;4981582;28;20220;-80
2022/12/13 08:49:35;;;;;;;28.43;16.60;;;;;;;;;;4984564;28;20231;-81
2022/12/13 08:52:03;;;;;;;33.67;17.70;;;;;;;;;;5019496;28;20617;-81
2022/12/13 08:54:31;;;;;;;22.33;13.03;;;;;;;;;;4976222;28;20304;-80
2022/12/13 08:56:57;;;;;;;22.20;13.60;;;;;;;;;;4992630;28;20218;-81
2022/12/13 08:59:24;;;;;;;17.93;13.30;;;;;;;;;;4971680;28;20224;-81
2022/12/13 09:01:49;;;;;;;23.10;14.17;;;;;;;;;;4979383;28;20220;-80
2022/12/13 09:04:15;;;;;;;26.80;13.63;;;;;;;;;;4977598;28;20227;-81
2022/12/13 09:06:43;;;;;;;19.17;13.23;;;;;;;;;;4990801;28;20312;-81
2022/12/13 09:09:08;;;;;;;19.20;13.20;;;;;;;;;;4991291;28;20815;-81
2022/12/13 09:11:34;;;;;;;16.60;11.83;;;;;;;;;;4998120;28;20260;-80
2022/12/13 09:13:59;;;;;;;19.27;13.40;;;;;;;;;;4987607;28;20233;-80
2022/12/13 09:16:29;;;;;;;17.70;12.73;;;;;;;;;;5001490;28;20629;-80
2022/12/13 09:18:54;;;;;;;18.47;13.67;;;;;;;;;;4977890;28;20249;-80
2022/12/13 09:21:22;;;;;;;20.43;12.80;;;;;;;;;;4985012;28;20214;-80
2022/12/13 09:23:50;;;;;;;17.67;13.17;;;;;;;;;;5005197;28;20248;-80
2022/12/13 09:26:18;;;;;;;19.87;13.53;;;;;;;;;;5020904;28;20288;-80
2022/12/13 09:28:43;;;;;;;15.93;12.80;;;;;;;;;;4989700;28;20308;-80
2022/12/13 09:31:11;;;;;;;22.70;14.00;;;;;;;;;;4991054;28;20229;-80
2022/12/13 09:33:37;;;;;;;23.57;16.43;;;;;;;;;;4974318;28;20300;-80
2022/12/13 09:36:04;;;;;;;36.77;22.20;;;;;;;;;;4994992;28;20647;-80
2022/12/13 09:38:31;;;;;;;29.47;19.60;;;;;;;;;;4990903;28;20296;-80
2022/12/13 09:40:56;;;;;;;19.43;14.43;;;;;;;;;;4993070;28;20228;-80
2022/12/13 09:43:26;;;;;;;22.37;15.77;;;;;;;;;;5001727;28;20227;-80
2022/12/13 09:45:52;;;;;;;17.23;13.20;;;;;;;;;;4989166;28;20292;-80
2022/12/13 09:48:18;;;;;;;17.90;13.30;;;;;;;;;;4969640;28;20312;-80
2022/12/13 09:50:44;;;;;;;20.10;13.70;;;;;;;;;;4977978;28;20221;-80
2022/12/13 09:53:13;;;;;;;22.40;14.63;;;;;;;;;;4983256;28;20276;-80
2022/12/13 09:55:43;;;;;;;19.17;13.50;;;;;;;;;;4997934;28;20231;-80
2022/12/13 09:58:26;;;;;;;18.67;13.13;;;;;;;;;;5009873;28;20582;-80
2022/12/13 10:00:53;;;;;;;18.67;14.83;;;;;;;;;;5006451;28;20220;-81
2022/12/13 10:03:19;;;;;;;19.20;14.70;;;;;;;;;;4982485;28;20220;-80
2022/12/13 10:05:57;;;;;;;19.57;15.00;;;;;;;;;;4993889;28;20251;-80
2022/12/13 10:08:26;;;;;;;19.50;13.80;;;;;;;;;;4979463;28;20697;-81
2022/12/13 10:10:52;;;;;;;20.37;14.47;;;;;;;;;;4990180;28;20225;-80
2022/12/13 10:13:26;;;;;;;16.77;13.37;;;;;;;;;;4974214;28;20240;-80
2022/12/13 10:16:16;;;;;;;18.73;14.37;;;;;;;;;;5013982;28;20240;-80
2022/12/13 10:18:42;;;;;;;17.20;13.40;;;;;;;;;;5013101;28;20229;-80
2022/12/13 10:21:26;;;;;;;17.73;13.63;;;;;;;;;;4991158;28;20222;-80
2022/12/13 10:23:55;;;;;;;19.37;14.03;;;;;;;;;;4988542;28;20307;-80
2022/12/13 10:26:23;;;;;;;17.63;13.63;;;;;;;;;;5010999;28;20226;-80
2022/12/13 10:28:48;;;;;;;19.70;15.07;;;;;;;;;;4999944;28;20233;-80
2022/12/13 10:31:18;;;;;;;16.87;14.17;;;;;;;;;;4977603;28;20221;-80
2022/12/13 10:33:54;;;;;;;18.53;14.77;;;;;;;;;;4990287;28;20360;-81
2022/12/13 10:36:34;;;;;;;16.83;13.70;;;;;;;;;;5007208;28;20217;-82
2022/12/13 10:38:59;;;;;;;18.13;14.17;;;;;;;;;;5012848;28;20253;-80
2022/12/13 10:41:26;;;;;;;19.53;14.73;;;;;;;;;;4993397;28;20599;-80
2022/12/13 10:44:10;;;;;;;19.37;14.17;;;;;;;;;;5000148;28;20224;-81
2022/12/13 10:46:37;;;;;;;18.90;15.17;;;;;;;;;;5018493;28;20231;-80
2022/12/13 10:49:03;;;;;;;17.97;14.87;;;;;;;;;;5007078;28;20233;-80
2022/12/13 10:51:36;;;;;;;27.37;18.83;;;;;;;;;;5001420;28;20713;-82
2022/12/13 10:54:01;;;;;;;26.60;20.47;;;;;;;;;;4986717;28;20263;-81
2022/12/13 10:56:48;;;;;;;26.23;17.97;;;;;;;;;;5011380;28;20224;-81
2022/12/13 10:59:34;;;;;;;20.90;14.83;;;;;;;;;;4997946;28;20228;-83
2022/12/13 11:02:02;;;;;;;18.23;14.17;;;;;;;;;;5021209;28;20224;-80
2022/12/13 11:04:45;;;;;;;18.03;13.47;;;;;;;;;;5028552;28;20215;-82
2022/12/13 11:07:29;;;;;;;16.37;13.70;;;;;;;;;;4991775;28;20244;-81
2022/12/13 11:10:24;;;;;;;17.40;14.30;;;;;;;;;;5001513;28;20246;-82
2022/12/13 11:13:05;;;;;;;16.97;13.40;;;;;;;;;;5008010;28;20232;-82
2022/12/13 11:15:37;;;;;;;18.20;15.23;;;;;;;;;;5031808;28;20692;-82
2022/12/13 11:18:07;;;;;;;18.90;14.97;;;;;;;;;;5006059;28;20610;-82
2022/12/13 11:20:37;;;;;;;16.23;13.07;;;;;;;;;;5027901;28;20229;-82
2022/12/13 11:23:25;;;;;;;18.97;15.53;;;;;;;;;;5006194;28;20241;-82
2022/12/13 11:26:05;;;;;;;18.30;14.20;;;;;;;;;;5025886;28;20233;-83
2022/12/13 11:28:40;;;;;;;18.50;14.27;;;;;;;;;;4992227;28;20236;-83
2022/12/13 11:31:08;;;;;;;21.20;14.30;;;;;;;;;;5023157;28;20254;-83
2022/12/13 11:33:48;;;;;;;19.50;14.67;;;;;;;;;;5005815;28;20260;-82
2022/12/13 11:36:20;;;;;;;17.30;13.77;;;;;;;;;;5020297;28;20220;-82
2022/12/13 11:39:01;;;;;;;15.97;13.13;;;;;;;;;;5000942;28;20221;-81
2022/12/13 11:42:00;;;;;;;14.03;12.43;;;;;;;;;;5016799;28;20228;-83
2022/12/13 11:44:56;;;;;;;14.63;12.87;;;;;;;;;;4954272;28;20217;-83
2022/12/13 11:47:24;;;;;;;16.33;14.03;;;;;;;;;;4987578;28;20228;-82
2022/12/13 11:49:52;;;;;;;17.10;13.90;;;;;;;;;;4985111;28;20689;-82
2022/12/13 11:52:24;;;;;;;18.07;14.93;;;;;;;;;;4997288;28;20243;-82
2022/12/13 11:54:55;;;;;;;18.27;15.47;;;;;;;;;;5001335;28;20221;-82
2022/12/13 11:57:43;;;;;;;20.03;15.03;;;;;;;;;;5024128;28;20281;-81
2022/12/13 12:00:30;;;;;;;16.70;14.30;;;;;;;;;;5020818;28;20228;-82
2022/12/13 12:03:04;;;;;;;17.50;14.87;;;;;;;;;;5016443;28;20232;-82
2022/12/13 12:05:34;;;;;;;17.97;14.77;;;;;;;;;;4985971;28;20339;-82
2022/12/13 12:08:19;;;;;;;17.57;14.90;;;;;;;;;;5018664;28;20880;-82
2022/12/13 12:10:48;;;;;;;19.73;14.43;;;;;;;;;;5006304;28;20342;-82
2022/12/13 12:13:32;;;;;;;22.53;16.87;;;;;;;;;;5000508;28;20225;-82
2022/12/13 12:16:00;;;;;;;19.13;16.37;;;;;;;;;;4996270;28;20285;-82
2022/12/13 12:18:28;;;;;;;19.33;16.40;;;;;;;;;;5018163;28;20217;-82
2022/12/13 12:21:05;;;;;;;18.80;15.67;;;;;;;;;;5035644;28;20235;-81
2022/12/13 12:23:46;;;;;;;16.87;15.07;;;;;;;;;;4985781;28;20226;-81
2022/12/13 12:26:16;;;;;;;17.33;15.47;;;;;;;;;;5009062;28;20748;-82
2022/12/13 12:28:44;;;;;;;23.50;16.03;;;;;;;;;;4997978;28;20228;-82
2022/12/13 12:31:51;;;;;;;18.03;15.87;;;;;;;;;;5009578;28;20219;-80
2022/12/13 12:34:42;;;;;;;18.83;14.93;;;;;;;;;;5000880;28;20244;-82
2022/12/13 12:37:08;;;;;;;19.50;15.23;;;;;;;;;;5007456;28;20275;-79
2022/12/13 12:39:43;;;;;;;17.63;14.87;;;;;;;;;;5006185;28;20225;-81
2022/12/13 12:42:21;;;;;;;20.73;15.73;;;;;;;;;;4995999;28;20308;-82
2022/12/13 12:44:58;;;;;;;19.40;15.10;;;;;;;;;;5029461;28;20887;-83
2022/12/13 12:47:42;;;;;;;22.43;16.63;;;;;;;;;;5003487;28;20235;-82
2022/12/13 12:50:31;;;;;;;19.00;15.40;;;;;;;;;;5025551;28;20240;-82
2022/12/13 12:53:03;;;;;;;17.27;14.97;;;;;;;;;;5003197;28;20242;-82
2022/12/13 12:55:37;;;;;;;18.60;16.47;;;;;;;;;;5016765;28;20233;-82
2022/12/13 12:58:24;;;;;;;18.97;15.83;;;;;;;;;;5026122;28;20263;-81
2022/12/13 13:01:14;;;;;;;18.80;16.00;;;;;;;;;;4994333;28;20225;-82
2022/12/13 13:03:42;;;;;;;17.30;15.47;;;;;;;;;;4994958;28;20293;-81
2022/12/13 13:06:13;;;;;;;17.60;15.70;;;;;;;;;;5009717;28;20702;-81
2022/12/13 13:08:45;;;;;;;22.23;16.97;;;;;;;;;;4984792;28;20240;-82
2022/12/13 13:11:10;;;;;;;21.03;15.63;;;;;;;;;;4997289;28;20212;-81
2022/12/13 13:13:45;;;;;;;18.50;15.40;;;;;;;;;;4995127;28;20217;-81
2022/12/13 13:16:26;;;;;;;19.20;16.43;;;;;;;;;;5017246;28;20289;-81
2022/12/13 13:18:54;;;;;;;20.57;17.70;;;;;;;;;;5013346;28;20688;-82
2022/12/13 13:21:23;;;;;;;18.70;16.33;;;;;;;;;;4974855;28;20286;-82
2022/12/13 13:24:00;;;;;;;17.63;15.27;;;;;;;;;;5002815;28;20241;-83
2022/12/13 13:26:30;;;;;;;18.73;15.83;;;;;;;;;;5004901;28;20306;-82
2022/12/13 13:29:21;;;;;;;18.10;16.17;;;;;;;;;;5009982;28;20237;-82
2022/12/13 13:31:57;;;;;;;19.07;16.33;;;;;;;;;;4999141;28;20231;-82
2022/12/13 13:34:34;;;;;;;16.67;14.57;;;;;;;;;;4991779;28;20223;-82
2022/12/13 13:37:01;;;;;;;19.90;14.73;;;;;;;;;;4995692;28;20229;-81
2022/12/13 13:39:26;;;;;;;23.60;15.57;;;;;;;;;;4993157;28;20213;-81
2022/12/13 13:42:12;;;;;;;21.27;15.60;;;;;;;;;;5017320;28;20225;-81
2022/12/13 13:44:44;;;;;;;19.73;15.37;;;;;;;;;;5005996;28;20235;-81
2022/12/13 13:47:18;;;;;;;18.83;16.03;;;;;;;;;;5013978;28;20223;-81
2022/12/13 13:50:01;;;;;;;17.47;14.80;;;;;;;;;;5009871;28;20233;-81
2022/12/13 13:52:52;;;;;;;16.70;14.40;;;;;;;;;;5012813;28;20225;-82
2022/12/13 13:55:36;;;;;;;18.87;14.53;;;;;;;;;;5031561;28;20258;-82
2022/12/13 13:58:08;;;;;;;21.03;15.93;;;;;;;;;;5015116;28;20245;-81
2022/12/13 14:00:42;;;;;;;19.40;14.67;;;;;;;;;;5015836;28;20217;-81
2022/12/13 14:06:47;;;;;;;15.73;14.07;;;;;;;;;;4994154;28;20250;-82
2022/12/13 14:09:39;;;;;;;18.17;15.47;;;;;;;;;;5006888;28;20232;-80
2022/12/13 14:12:41;;;;;;;14.63;13.07;;;;;;;;;;4946536;29;20238;-80
2022/12/13 14:15:21;;;;;;;16.30;13.83;;;;;;;;;;4972123;28;20235;-80
2022/12/13 14:18:07;;;;;;;15.83;14.23;;;;;;;;;;5023610;28;20304;-80
2022/12/13 14:20:54;;;;;;;16.80;14.13;;;;;;;;;;4999550;28;20230;-81
2022/12/13 14:24:01;;;;;;;17.83;14.53;;;;;;;;;;5007244;28;20252;-84
2022/12/13 14:26:50;;;;;;;15.77;13.23;;;;;;;;;;4943263;29;20314;-83
2022/12/13 14:29:19;;;;;;;16.93;13.93;;;;;;;;;;4998161;28;20234;-84
2022/12/13 14:31:48;;;;;;;16.40;14.67;;;;;;;;;;5005368;28;20245;-83
2022/12/13 14:34:28;;;;;;;15.87;13.87;;;;;;;;;;4988028;28;20221;-82
2022/12/13 14:37:29;;;;;;;18.57;13.97;;;;;;;;;;4991814;28;20229;-79
2022/12/13 14:39:55;;;;;;;18.83;14.83;;;;;;;;;;5003864;28;20848;-80
2022/12/13 14:42:33;;;;;;;15.90;14.00;;;;;;;;;;4988124;28;20236;-82
2022/12/13 14:45:29;;;;;;;14.73;12.83;;;;;;;;;;4999766;28;20248;-82
2022/12/13 14:48:00;;;;;;;19.40;14.67;;;;;;;;;;4990554;28;20225;-84
2022/12/13 14:50:27;;;;;;;15.27;13.70;;;;;;;;;;4968927;28;20253;-82
2022/12/13 14:52:52;;;;;;;16.93;14.03;;;;;;;;;;5003091;28;20218;-82
2022/12/13 14:55:26;;;;;;;16.93;14.77;;;;;;;;;;4990353;28;20283;-82